createdAt,value
2022-10-05T00:00:25.901Z,94623.59
2022-10-05T00:01:33.713Z,94622.66
2022-10-05T00:02:32.282Z,94622.44
2022-10-05T00:03:36.977Z,94607.28
2022-10-05T00:04:33.663Z,94613.34
2022-10-05T00:05:33.159Z,94622.28
2022-10-05T00:06:30.463Z,94623.34
2022-10-05T00:07:30.256Z,94623.34
2022-10-05T00:08:32.217Z,94617.50
2022-10-05T00:09:32.350Z,94620.13
2022-10-05T00:10:29.422Z,94622.19
2022-10-05T00:11:26.030Z,94620.34
2022-10-05T00:12:23.559Z,94620.75
2022-10-05T00:13:22.931Z,94625.47
2022-10-05T00:14:30.174Z,94619.44
2022-10-05T00:15:26.829Z,94619.53
2022-10-05T00:16:23.431Z,94629.94
2022-10-05T00:17:25.182Z,94622.97
2022-10-05T00:18:21.953Z,94620.16
2022-10-05T00:19:23.622Z,94626.56
2022-10-05T00:20:24.622Z,94620.19
2022-10-05T00:21:27.406Z,94617.03
2022-10-05T00:22:30.326Z,94612.53
2022-10-05T00:23:31.195Z,94614.25
2022-10-05T00:24:27.867Z,94615.25
2022-10-05T00:25:24.759Z,94615.13
2022-10-05T00:26:32.018Z,94613.69
2022-10-05T00:27:37.609Z,94620.84
2022-10-05T00:28:34.249Z,94613.59
2022-10-05T00:29:31.029Z,94619.59
2022-10-05T00:30:33.937Z,94602.56
2022-10-05T00:31:33.161Z,94590.16
2022-10-05T00:32:29.823Z,94622.25
2022-10-05T00:33:27.626Z,94601.81
2022-10-05T00:34:24.270Z,94607.31
2022-10-05T00:35:20.893Z,94611.44
2022-10-05T00:36:17.915Z,94608.50
2022-10-05T00:37:14.968Z,94611.69
2022-10-05T00:38:11.549Z,94611.28
2022-10-05T00:39:08.147Z,94615.22
2022-10-05T00:40:27.962Z,94618.84
2022-10-05T00:41:36.005Z,94625.59
2022-10-05T00:43:00.163Z,94628.69
2022-10-05T00:44:10.287Z,94626.50
2022-10-05T00:45:12.186Z,94630.03
2022-10-05T00:46:14.422Z,94632.34
2022-10-05T00:47:34.688Z,94634.78
2022-10-05T00:48:53.356Z,94623.44
2022-10-05T00:49:52.655Z,94628.88
2022-10-05T00:51:03.760Z,94638.81
2022-10-05T00:52:37.616Z,94628.09
2022-10-05T00:53:43.447Z,94636.25
2022-10-05T00:54:52.524Z,94639.38
2022-10-05T00:55:56.593Z,94639.19
2022-10-05T00:57:16.734Z,94639.44
2022-10-05T00:58:13.259Z,94638.66
2022-10-05T00:59:41.573Z,94641.38
2022-10-05T01:00:54.984Z,94639.31
2022-10-05T01:02:20.223Z,94635.66
2022-10-05T01:03:24.819Z,94640.06
2022-10-05T01:04:57.742Z,94637.66
2022-10-05T01:06:18.696Z,94636.88
2022-10-05T01:07:25.668Z,94638.31
2022-10-05T01:08:43.388Z,94631.00
2022-10-05T01:10:06.118Z,94636.91
2022-10-05T01:11:25.826Z,94632.41
2022-10-05T01:12:44.693Z,94628.56
2022-10-05T01:13:59.930Z,94634.06
2022-10-05T01:15:07.005Z,94631.78
2022-10-05T01:16:09.528Z,94625.44
2022-10-05T01:17:10.955Z,94638.22
2022-10-05T01:18:31.541Z,94632.94
2022-10-05T01:19:35.578Z,94638.69
2022-10-05T01:21:06.376Z,94629.53
2022-10-05T01:22:19.774Z,94641.25
2022-10-05T01:23:30.631Z,94607.63
2022-10-05T01:24:45.762Z,94640.44
2022-10-05T01:26:01.234Z,94653.91
2022-10-05T01:27:13.773Z,94642.19
2022-10-05T01:28:15.871Z,94648.34
2022-10-05T01:29:17.364Z,94655.06
2022-10-05T01:30:17.423Z,94660.50
2022-10-05T01:31:35.316Z,94660.28
2022-10-05T01:32:39.406Z,94660.59
2022-10-05T01:34:02.236Z,94650.44
2022-10-05T01:35:15.135Z,94661.34
2022-10-05T01:36:37.275Z,94671.84
2022-10-05T01:37:48.852Z,94669.97
2022-10-05T01:38:57.901Z,94663.78
2022-10-05T01:40:22.031Z,94676.69
2022-10-05T01:41:27.643Z,94670.06
2022-10-05T01:42:52.100Z,94677.31
2022-10-05T01:44:25.365Z,94670.31
2022-10-05T01:45:21.887Z,94674.00
2022-10-05T01:46:44.579Z,94677.72
2022-10-05T01:47:46.313Z,94676.41
2022-10-05T01:49:16.961Z,94677.78
2022-10-05T01:50:26.974Z,94675.50
2022-10-05T01:52:01.224Z,94677.47
2022-10-05T01:53:13.097Z,94672.34
2022-10-05T01:54:26.294Z,94675.19
2022-10-05T01:55:52.463Z,94675.00
2022-10-05T01:56:54.778Z,94670.78
2022-10-05T01:58:07.844Z,94669.06
2022-10-05T01:59:04.317Z,94674.34
2022-10-05T02:00:13.732Z,94673.44
2022-10-05T02:01:27.103Z,94654.94
2022-10-05T02:02:26.281Z,94672.66
2022-10-05T02:03:31.393Z,94667.00
2022-10-05T02:05:00.981Z,94666.00
2022-10-05T02:05:57.413Z,94681.22
2022-10-05T02:06:54.110Z,94690.56
2022-10-05T02:08:31.095Z,94686.66
2022-10-05T02:09:37.206Z,94679.47
2022-10-05T02:10:44.553Z,94684.16
2022-10-05T02:11:45.589Z,94700.72
2022-10-05T02:12:44.752Z,94673.63
2022-10-05T02:13:48.927Z,94689.81
2022-10-05T02:14:50.927Z,94686.56
2022-10-05T02:16:03.310Z,94689.81
2022-10-05T02:17:05.652Z,94694.41
2022-10-05T02:18:21.094Z,94691.50
2022-10-05T02:19:37.207Z,94689.28
2022-10-05T02:20:35.342Z,94692.94
2022-10-05T02:21:34.874Z,94687.28
2022-10-05T02:22:39.821Z,94691.50
2022-10-05T02:23:39.759Z,94691.50
2022-10-05T02:24:40.981Z,94692.78
2022-10-05T02:25:43.123Z,94660.91
2022-10-05T02:26:41.068Z,94688.00
2022-10-05T02:27:47.572Z,94687.78
2022-10-05T02:28:55.788Z,94691.22
2022-10-05T02:29:56.521Z,94685.94
2022-10-05T02:30:59.069Z,94701.19
2022-10-05T02:32:16.013Z,94699.34
2022-10-05T02:33:33.307Z,94697.78
2022-10-05T02:34:41.752Z,94693.44
2022-10-05T02:35:38.429Z,94700.06
2022-10-05T02:36:37.341Z,94702.22
2022-10-05T02:37:46.440Z,94705.22
2022-10-05T02:38:59.412Z,94700.84
2022-10-05T02:40:08.971Z,94699.78
2022-10-05T02:41:36.950Z,94696.09
2022-10-05T02:43:06.537Z,94697.09
2022-10-05T02:44:29.242Z,94697.78
2022-10-05T02:45:50.100Z,94697.00
2022-10-05T02:47:28.037Z,94693.22
2022-10-05T02:48:36.432Z,94693.09
2022-10-05T02:49:44.968Z,94693.13
2022-10-05T02:51:04.955Z,94696.13
2022-10-05T02:52:10.244Z,94700.47
2022-10-05T02:53:22.643Z,94701.00
2022-10-05T02:54:21.977Z,94698.25
2022-10-05T02:55:25.140Z,94692.88
2022-10-05T02:56:47.054Z,94694.22
2022-10-05T02:58:15.017Z,94700.47
2022-10-05T02:59:38.111Z,94699.84
2022-10-05T03:00:42.925Z,94700.41
2022-10-05T03:01:52.564Z,94703.44
2022-10-05T03:02:55.906Z,94701.72
2022-10-05T03:04:26.726Z,94694.41
2022-10-05T03:05:33.971Z,94705.19
2022-10-05T03:06:38.316Z,94706.81
2022-10-05T03:07:48.447Z,94707.22
2022-10-05T03:08:49.227Z,94710.66
2022-10-05T03:10:00.902Z,94707.72
2022-10-05T03:11:29.353Z,94705.50
2022-10-05T03:12:44.899Z,94709.06
2022-10-05T03:14:07.949Z,94713.56
2022-10-05T03:15:28.704Z,94713.69
2022-10-05T03:16:40.507Z,94715.66
2022-10-05T03:17:51.995Z,94710.63
2022-10-05T03:19:15.125Z,94710.72
2022-10-05T03:20:22.743Z,94709.56
2022-10-05T03:21:41.122Z,94728.50
2022-10-05T03:22:43.697Z,94720.25
2022-10-05T03:23:55.412Z,94730.88
2022-10-05T03:25:09.844Z,94717.94
2022-10-05T03:26:18.454Z,94723.72
2022-10-05T03:27:21.038Z,94719.50
2022-10-05T03:28:27.202Z,94707.47
2022-10-05T03:29:26.417Z,94724.63
2022-10-05T03:30:25.763Z,94720.47
2022-10-05T03:31:47.756Z,94722.25
2022-10-05T03:33:01.667Z,94724.97
2022-10-05T03:34:10.020Z,94724.38
2022-10-05T03:35:16.383Z,94722.59
2022-10-05T03:36:46.694Z,94719.97
2022-10-05T03:38:19.917Z,94732.03
2022-10-05T03:39:19.365Z,94726.69
2022-10-05T03:40:28.029Z,94737.38
2022-10-05T03:41:34.636Z,94737.50
2022-10-05T03:42:59.034Z,94733.59
2022-10-05T03:44:04.683Z,94736.72
2022-10-05T03:45:33.276Z,94745.19
2022-10-05T03:47:06.727Z,94742.00
2022-10-05T03:48:11.510Z,94740.25
2022-10-05T03:49:16.615Z,94741.97
2022-10-05T03:50:51.229Z,94738.59
2022-10-05T03:52:14.043Z,94737.44
2022-10-05T03:53:23.551Z,94732.03
2022-10-05T03:54:41.207Z,94735.47
2022-10-05T03:55:57.156Z,94732.59
2022-10-05T03:56:57.584Z,94733.56
2022-10-05T03:57:58.587Z,94732.56
2022-10-05T03:59:15.732Z,94730.38
2022-10-05T04:00:16.512Z,94731.41
2022-10-05T04:01:20.465Z,94734.97
2022-10-05T04:02:31.105Z,94731.59
2022-10-05T04:03:44.067Z,94734.75
2022-10-05T04:04:50.786Z,94738.00
2022-10-05T04:05:55.630Z,94736.59
2022-10-05T04:06:55.206Z,94735.19
2022-10-05T04:07:54.845Z,94739.53
2022-10-05T04:09:13.041Z,94738.44
2022-10-05T04:10:19.193Z,94732.31
2022-10-05T04:11:23.224Z,94750.94
2022-10-05T04:12:27.694Z,94745.13
2022-10-05T04:13:40.030Z,94751.22
2022-10-05T04:14:41.454Z,94741.50
2022-10-05T04:15:44.479Z,94754.09
2022-10-05T04:16:46.147Z,94742.44
2022-10-05T04:18:14.707Z,94757.13
2022-10-05T04:19:23.232Z,94754.97
2022-10-05T04:20:25.388Z,94758.19
2022-10-05T04:21:30.089Z,94761.56
2022-10-05T04:22:35.721Z,94742.09
2022-10-05T04:23:50.548Z,94758.09
2022-10-05T04:24:58.465Z,94757.06
2022-10-05T04:26:02.349Z,94750.06
2022-10-05T04:27:03.977Z,94757.84
2022-10-05T04:28:11.537Z,94760.00
2022-10-05T04:29:15.320Z,94764.00
2022-10-05T04:30:19.580Z,94753.09
2022-10-05T04:31:31.988Z,94761.38
2022-10-05T04:32:37.485Z,94756.38
2022-10-05T04:33:34.130Z,94762.84
2022-10-05T04:34:50.090Z,94772.00
2022-10-05T04:35:50.252Z,94768.72
2022-10-05T04:36:59.839Z,94768.91
2022-10-05T04:38:23.582Z,94778.13
2022-10-05T04:39:35.338Z,94779.28
2022-10-05T04:41:02.950Z,94780.78
2022-10-05T04:42:38.078Z,94784.75
2022-10-05T04:43:48.850Z,94785.78
2022-10-05T04:44:59.322Z,94763.53
2022-10-05T04:46:05.845Z,94782.41
2022-10-05T04:47:22.162Z,94786.88
2022-10-05T04:48:40.700Z,94781.59
2022-10-05T04:49:56.137Z,94786.47
2022-10-05T04:51:08.863Z,94785.44
2022-10-05T04:52:17.471Z,94789.00
2022-10-05T04:53:27.027Z,94786.28
2022-10-05T04:54:26.624Z,94791.56
2022-10-05T04:55:35.087Z,94790.56
2022-10-05T04:56:41.505Z,94764.41
2022-10-05T04:57:42.048Z,94791.06
2022-10-05T04:59:06.868Z,94788.06
2022-10-05T05:00:23.328Z,94791.13
2022-10-05T05:01:48.883Z,94787.16
2022-10-05T05:03:04.601Z,94793.94
2022-10-05T05:04:14.971Z,94784.63
2022-10-05T05:06:16.367Z,94784.94
2022-10-05T05:07:34.295Z,94772.91
2022-10-05T05:08:48.900Z,94786.28
2022-10-05T05:09:48.190Z,94785.06
2022-10-05T05:11:22.403Z,94794.88
2022-10-05T05:12:42.273Z,94794.50
2022-10-05T05:13:57.811Z,94789.59
2022-10-05T05:15:12.475Z,94792.59
2022-10-05T05:16:35.830Z,94790.47
2022-10-05T05:17:54.877Z,94792.06
2022-10-05T05:19:10.518Z,94799.06
2022-10-05T05:20:09.907Z,94801.06
2022-10-05T05:21:21.124Z,94793.56
2022-10-05T05:22:40.630Z,94799.28
2022-10-05T05:23:44.460Z,94790.34
2022-10-05T05:24:44.187Z,94790.84
2022-10-05T05:25:57.167Z,94808.91
2022-10-05T05:27:28.124Z,94808.63
2022-10-05T05:28:53.321Z,94761.91
2022-10-05T05:30:02.244Z,94806.25
2022-10-05T05:31:37.256Z,94813.53
2022-10-05T05:32:53.339Z,94816.19
2022-10-05T05:34:27.584Z,94813.34
2022-10-05T05:35:39.145Z,94818.25
2022-10-05T05:36:47.785Z,94811.47
2022-10-05T05:38:00.801Z,94809.31
2022-10-05T05:39:16.292Z,94817.09
2022-10-05T05:40:23.385Z,94822.56
2022-10-05T05:41:32.014Z,94820.22
2022-10-05T05:42:46.866Z,94822.09
2022-10-05T05:44:14.902Z,94817.25
2022-10-05T05:45:47.614Z,94819.06
2022-10-05T05:47:03.546Z,94818.16
2022-10-05T05:48:05.583Z,94816.41
2022-10-05T05:49:13.874Z,94820.59
2022-10-05T05:50:45.600Z,94822.31
2022-10-05T05:51:54.488Z,94819.94
2022-10-05T05:52:59.549Z,94827.50
2022-10-05T05:54:01.354Z,94836.00
2022-10-05T05:55:16.304Z,94831.75
2022-10-05T05:56:16.103Z,94829.72
2022-10-05T05:57:21.861Z,94833.06
2022-10-05T05:58:40.064Z,94840.41
2022-10-05T05:59:51.784Z,94827.63
2022-10-05T06:01:03.440Z,94838.09
2022-10-05T06:02:08.420Z,94834.41
2022-10-05T06:03:24.823Z,94834.94
2022-10-05T06:04:31.948Z,94822.00
2022-10-05T06:05:49.869Z,94842.91
2022-10-05T06:06:52.647Z,94840.56
2022-10-05T06:07:52.215Z,94848.72
2022-10-05T06:08:56.883Z,94845.75
2022-10-05T06:09:59.955Z,94842.28
2022-10-05T06:11:05.497Z,94843.72
2022-10-05T06:12:12.107Z,94837.75
2022-10-05T06:13:20.650Z,94841.31
2022-10-05T06:14:35.490Z,94849.97
2022-10-05T06:15:48.613Z,94847.34
2022-10-05T06:16:47.513Z,94841.72
2022-10-05T06:17:50.234Z,94849.53
2022-10-05T06:18:52.107Z,94844.28
2022-10-05T06:19:52.788Z,94855.28
2022-10-05T06:20:57.078Z,94854.72
2022-10-05T06:22:05.695Z,94846.19
2022-10-05T06:23:07.439Z,94853.41
2022-10-05T06:24:16.865Z,94855.13
2022-10-05T06:25:13.377Z,94859.34
2022-10-05T06:26:15.925Z,94861.44
2022-10-05T06:27:24.534Z,94860.69
2022-10-05T06:28:21.420Z,94859.91
2022-10-05T06:29:23.926Z,94866.56
2022-10-05T06:30:20.430Z,94867.97
2022-10-05T06:31:26.828Z,94874.50
2022-10-05T06:32:50.498Z,94870.34
2022-10-05T06:34:25.328Z,94863.03
2022-10-05T06:35:52.564Z,94879.66
2022-10-05T06:36:57.674Z,94876.75
2022-10-05T06:38:04.721Z,94874.25
2022-10-05T06:39:32.137Z,94889.91
2022-10-05T06:40:49.935Z,94881.38
2022-10-05T06:42:10.911Z,94889.81
2022-10-05T06:43:28.953Z,94895.19
2022-10-05T06:44:49.217Z,94895.34
2022-10-05T06:45:59.937Z,94897.56
2022-10-05T06:47:08.531Z,94892.41
2022-10-05T06:48:20.024Z,94892.06
2022-10-05T06:49:29.463Z,94878.63
2022-10-05T06:50:47.097Z,94903.00
2022-10-05T06:51:54.691Z,94896.91
2022-10-05T06:53:03.360Z,94901.00
2022-10-05T06:54:24.696Z,94903.19
2022-10-05T06:55:24.290Z,94892.38
2022-10-05T06:56:31.379Z,94894.25
2022-10-05T06:57:46.070Z,94898.00
2022-10-05T06:59:06.581Z,94900.34
2022-10-05T07:00:20.417Z,94895.81
2022-10-05T07:01:36.417Z,94899.09
2022-10-05T07:02:52.871Z,94887.94
2022-10-05T07:03:55.553Z,94898.59
2022-10-05T07:05:10.137Z,94897.91
2022-10-05T07:06:25.545Z,94890.44
2022-10-05T07:07:51.889Z,94899.84
2022-10-05T07:09:02.995Z,94896.38
2022-10-05T07:10:42.532Z,94899.34
2022-10-05T07:12:07.729Z,94899.09
2022-10-05T07:13:38.605Z,94898.34
2022-10-05T07:14:40.850Z,94906.66
2022-10-05T07:16:19.241Z,94902.72
2022-10-05T07:17:24.749Z,94906.66
2022-10-05T07:18:47.647Z,94900.88
2022-10-05T07:19:44.183Z,94903.22
2022-10-05T07:20:48.238Z,94904.78
2022-10-05T07:22:00.738Z,94901.50
2022-10-05T07:23:25.094Z,94904.03
2022-10-05T07:24:29.321Z,94901.31
2022-10-05T07:25:41.887Z,94904.16
2022-10-05T07:26:49.124Z,94896.59
2022-10-05T07:28:05.628Z,94903.84
2022-10-05T07:29:14.318Z,94908.06
2022-10-05T07:30:13.708Z,94907.59
2022-10-05T07:31:40.012Z,94906.63
2022-10-05T07:32:45.788Z,94897.88
2022-10-05T07:34:09.550Z,94899.13
2022-10-05T07:35:09.448Z,94900.81
2022-10-05T07:36:54.645Z,94898.56
2022-10-05T07:37:55.732Z,94891.63
2022-10-05T07:39:01.225Z,94901.00
2022-10-05T07:40:15.205Z,94896.75
2022-10-05T07:41:21.430Z,94896.44
2022-10-05T07:42:27.074Z,94905.84
2022-10-05T07:43:51.456Z,94900.69
2022-10-05T07:44:54.537Z,94905.50
2022-10-05T07:46:04.731Z,94906.06
2022-10-05T07:47:15.443Z,94897.63
2022-10-05T07:48:22.583Z,94907.31
2022-10-05T07:49:39.385Z,94908.72
2022-10-05T07:50:47.142Z,94902.44
2022-10-05T07:51:55.682Z,94903.38
2022-10-05T07:53:05.290Z,94898.84
2022-10-05T07:54:07.946Z,94909.56
2022-10-05T07:55:25.300Z,94901.94
2022-10-05T07:56:29.628Z,94904.09
2022-10-05T07:57:53.731Z,94911.22
2022-10-05T07:59:04.441Z,94918.78
2022-10-05T08:00:11.492Z,94919.75
2022-10-05T08:01:20.890Z,94922.13
2022-10-05T08:02:26.807Z,94928.22
2022-10-05T08:03:34.921Z,94925.53
2022-10-05T08:04:41.985Z,94915.53
2022-10-05T08:05:42.370Z,94920.50
2022-10-05T08:07:04.964Z,94918.00
2022-10-05T08:08:14.264Z,94906.28
2022-10-05T08:09:35.224Z,94918.72
2022-10-05T08:10:59.928Z,94921.44
2022-10-05T08:12:26.936Z,94920.47
2022-10-05T08:13:29.136Z,94922.38
2022-10-05T08:14:35.004Z,94923.16
2022-10-05T08:15:55.485Z,94918.38
2022-10-05T08:16:55.419Z,94918.13
2022-10-05T08:18:10.148Z,94920.06
2022-10-05T08:19:35.621Z,94915.09
2022-10-05T08:20:41.367Z,94925.19
2022-10-05T08:22:04.439Z,94927.53
2022-10-05T08:23:21.077Z,94924.13
2022-10-05T08:24:38.546Z,94923.81
2022-10-05T08:25:47.084Z,94916.84
2022-10-05T08:27:02.765Z,94922.63
2022-10-05T08:28:08.635Z,94919.16
2022-10-05T08:29:05.207Z,94920.38
2022-10-05T08:30:06.392Z,94919.66
2022-10-05T08:31:06.097Z,94924.31
2022-10-05T08:32:09.359Z,94907.28
2022-10-05T08:33:13.365Z,94921.19
2022-10-05T08:34:54.496Z,94922.41
2022-10-05T08:36:13.760Z,94915.78
2022-10-05T08:37:19.015Z,94917.81
2022-10-05T08:38:25.299Z,94894.44
2022-10-05T08:39:24.784Z,94919.50
2022-10-05T08:40:58.819Z,94921.16
2022-10-05T08:42:43.570Z,94910.28
2022-10-05T08:43:43.133Z,94915.88
2022-10-05T08:44:48.565Z,94911.19
2022-10-05T08:46:06.817Z,94880.50
2022-10-05T08:47:36.235Z,94914.47
2022-10-05T08:49:04.969Z,94915.47
2022-10-05T08:50:25.359Z,94915.06
2022-10-05T08:51:48.615Z,94912.16
2022-10-05T08:53:16.119Z,94907.47
2022-10-05T08:54:13.334Z,94904.31
2022-10-05T08:55:09.858Z,94908.66
2022-10-05T08:56:26.361Z,94909.41
2022-10-05T08:57:46.745Z,94907.81
2022-10-05T08:58:59.097Z,94908.34
2022-10-05T08:59:58.582Z,94915.63
2022-10-05T09:01:06.430Z,94924.94
2022-10-05T09:02:10.161Z,94918.88
2022-10-05T09:03:37.891Z,94912.88
2022-10-05T09:04:58.217Z,94915.97
2022-10-05T09:06:18.940Z,94910.84
2022-10-05T09:07:40.246Z,94911.72
2022-10-05T09:08:42.909Z,94910.84
2022-10-05T09:10:07.498Z,94906.34
2022-10-05T09:11:12.093Z,94907.09
2022-10-05T09:12:14.765Z,94910.56
2022-10-05T09:13:24.351Z,94902.56
2022-10-05T09:14:20.914Z,94910.25
2022-10-05T09:15:30.711Z,94909.84
2022-10-05T09:17:00.900Z,94906.34
2022-10-05T09:18:33.787Z,94903.44
2022-10-05T09:19:43.164Z,94909.69
2022-10-05T09:20:55.205Z,94907.00
2022-10-05T09:22:10.740Z,94906.50
2022-10-05T09:23:43.676Z,94906.13
2022-10-05T09:24:52.338Z,94919.44
2022-10-05T09:25:51.858Z,94906.66
2022-10-05T09:26:51.377Z,94919.22
2022-10-05T09:28:20.570Z,94905.34
2022-10-05T09:29:26.504Z,94904.25
2022-10-05T09:30:58.521Z,94905.75
2022-10-05T09:32:42.111Z,94910.38
2022-10-05T09:33:57.069Z,94902.13
2022-10-05T09:35:18.681Z,94907.09
2022-10-05T09:36:27.469Z,94903.75
2022-10-05T09:37:36.890Z,94901.41
2022-10-05T09:38:46.512Z,94896.94
2022-10-05T09:39:48.978Z,94904.59
2022-10-05T09:41:04.656Z,94899.47
2022-10-05T09:42:17.539Z,94896.09
2022-10-05T09:43:47.286Z,94899.16
2022-10-05T09:44:49.908Z,94905.66
2022-10-05T09:46:01.620Z,94906.94
2022-10-05T09:47:12.272Z,94910.81
2022-10-05T09:48:14.853Z,94913.25
2022-10-05T09:49:26.458Z,94911.53
2022-10-05T09:50:38.439Z,94908.06
2022-10-05T09:51:37.828Z,94906.91
2022-10-05T09:52:49.115Z,94909.03
2022-10-05T09:54:19.792Z,94902.41
2022-10-05T09:56:10.435Z,94894.25
2022-10-05T09:57:25.383Z,94898.53
2022-10-05T09:58:34.089Z,94900.94
2022-10-05T09:59:47.658Z,94892.13
2022-10-05T10:01:09.009Z,94894.97
2022-10-05T10:02:27.811Z,94898.88
2022-10-05T10:03:43.115Z,94909.59
2022-10-05T10:04:40.150Z,94888.25
2022-10-05T10:05:57.519Z,94903.13
2022-10-05T10:07:32.287Z,94895.78
2022-10-05T10:08:42.212Z,94893.06
2022-10-05T10:09:56.951Z,94902.06
2022-10-05T10:11:27.917Z,94893.31
2022-10-05T10:12:36.680Z,94905.97
2022-10-05T10:13:56.478Z,94899.81
2022-10-05T10:15:24.290Z,94906.91
2022-10-05T10:16:29.934Z,94905.91
2022-10-05T10:17:43.565Z,94907.50
2022-10-05T10:18:53.118Z,94904.69
2022-10-05T10:20:04.100Z,94914.38
2022-10-05T10:21:16.952Z,94900.53
2022-10-05T10:22:52.990Z,94910.81
2022-10-05T10:24:08.505Z,94910.03
2022-10-05T10:25:34.798Z,94905.38
2022-10-05T10:26:50.674Z,94879.06
2022-10-05T10:28:09.039Z,94899.28
2022-10-05T10:29:17.735Z,94897.22
2022-10-05T10:30:40.457Z,94902.22
2022-10-05T10:32:20.616Z,94888.25
2022-10-05T10:33:42.239Z,94886.22
2022-10-05T10:34:57.571Z,94884.13
2022-10-05T10:36:13.132Z,94881.50
2022-10-05T10:37:27.647Z,94887.53
2022-10-05T10:38:47.266Z,94879.25
2022-10-05T10:40:08.790Z,94885.44
2022-10-05T10:41:05.412Z,94879.56
2022-10-05T10:42:11.018Z,94885.75
2022-10-05T10:43:16.553Z,94886.91
2022-10-05T10:44:38.148Z,94878.63
2022-10-05T10:45:49.918Z,94878.28
2022-10-05T10:47:07.950Z,94881.75
2022-10-05T10:48:11.403Z,94872.81
2022-10-05T10:49:22.081Z,94870.50
2022-10-05T10:50:40.156Z,94872.97
2022-10-05T10:51:58.089Z,94879.97
2022-10-05T10:53:10.447Z,94882.13
2022-10-05T10:54:27.367Z,94878.94
2022-10-05T10:55:51.993Z,94876.84
2022-10-05T10:57:05.525Z,94880.38
2022-10-05T10:58:26.252Z,94865.28
2022-10-05T10:59:40.120Z,94870.41
2022-10-05T11:00:57.838Z,94865.25
2022-10-05T11:02:20.699Z,94860.53
2022-10-05T11:03:26.376Z,94862.09
2022-10-05T11:05:01.657Z,94856.47
2022-10-05T11:06:21.285Z,94855.91
2022-10-05T11:07:30.484Z,94851.97
2022-10-05T11:08:27.011Z,94858.63
2022-10-05T11:10:02.004Z,94850.84
2022-10-05T11:11:23.571Z,94846.88
2022-10-05T11:12:45.150Z,94843.84
2022-10-05T11:14:06.372Z,94852.22
2022-10-05T11:15:36.501Z,94808.44
2022-10-05T11:16:38.917Z,94837.69
2022-10-05T11:17:41.282Z,94852.72
2022-10-05T11:19:13.401Z,94843.34
2022-10-05T11:20:25.297Z,94839.53
2022-10-05T11:21:33.904Z,94849.00
2022-10-05T11:22:51.755Z,94842.38
2022-10-05T11:24:00.287Z,94847.09
2022-10-05T11:25:35.928Z,94839.53
2022-10-05T11:27:08.379Z,94847.13
2022-10-05T11:28:14.325Z,94844.03
2022-10-05T11:30:02.242Z,94838.25
2022-10-05T11:31:31.142Z,94829.66
2022-10-05T11:33:04.181Z,94837.16
2022-10-05T11:34:37.926Z,94833.69
2022-10-05T11:35:55.927Z,94838.44
2022-10-05T11:37:29.820Z,94839.81
2022-10-05T11:38:32.302Z,94836.94
2022-10-05T11:39:30.550Z,94835.16
2022-10-05T11:40:36.392Z,94833.91
2022-10-05T11:42:12.047Z,94840.91
2022-10-05T11:43:30.131Z,94835.06
2022-10-05T11:45:06.194Z,94843.19
2022-10-05T11:46:46.092Z,94842.81
2022-10-05T11:48:03.818Z,94845.50
2022-10-05T11:49:16.760Z,94838.59
2022-10-05T11:50:27.084Z,94836.47
2022-10-05T11:51:37.457Z,94831.28
2022-10-05T11:52:47.703Z,94829.59
2022-10-05T11:54:20.741Z,94821.88
2022-10-05T11:55:42.900Z,94832.44
2022-10-05T11:56:44.935Z,94819.03
2022-10-05T11:57:56.532Z,94818.78
2022-10-05T11:59:08.250Z,94820.53
2022-10-05T12:00:19.142Z,94831.47
2022-10-05T12:01:23.632Z,94829.25
2022-10-05T12:02:36.910Z,94824.22
2022-10-05T12:03:55.925Z,94823.63
2022-10-05T12:05:03.550Z,94819.34
2022-10-05T12:06:28.200Z,94809.72
2022-10-05T12:07:47.726Z,94800.41
2022-10-05T12:08:44.352Z,94810.56
2022-10-05T12:10:11.835Z,94816.38
2022-10-05T12:11:29.315Z,94824.19
2022-10-05T12:12:30.929Z,94821.16
2022-10-05T12:13:38.785Z,94821.94
2022-10-05T12:14:44.939Z,94821.47
2022-10-05T12:15:57.605Z,94797.44
2022-10-05T12:17:00.170Z,94820.84
2022-10-05T12:18:00.351Z,94821.88
2022-10-05T12:19:08.833Z,94821.25
2022-10-05T12:20:14.216Z,94825.16
2022-10-05T12:21:22.982Z,94823.03
2022-10-05T12:22:33.892Z,94820.56
2022-10-05T12:23:53.806Z,94818.47
2022-10-05T12:25:19.230Z,94816.75
2022-10-05T12:26:24.438Z,94814.06
2022-10-05T12:27:25.347Z,94818.63
2022-10-05T12:28:43.457Z,94812.44
2022-10-05T12:30:03.456Z,94811.41
2022-10-05T12:31:46.347Z,94815.16
2022-10-05T12:33:01.834Z,94819.06
2022-10-05T12:34:40.463Z,94820.84
2022-10-05T12:35:48.203Z,94811.69
2022-10-05T12:37:04.385Z,94814.09
2022-10-05T12:38:08.119Z,94806.88
2022-10-05T12:39:07.716Z,94810.31
2022-10-05T12:40:35.009Z,94819.38
2022-10-05T12:41:37.813Z,94810.13
2022-10-05T12:42:56.259Z,94820.81
2022-10-05T12:44:21.586Z,94828.41
2022-10-05T12:45:24.398Z,94820.16
2022-10-05T12:46:30.038Z,94819.88
2022-10-05T12:47:42.019Z,94826.59
2022-10-05T12:49:00.163Z,94822.66
2022-10-05T12:50:13.126Z,94809.13
2022-10-05T12:51:16.978Z,94823.22
2022-10-05T12:52:31.567Z,94822.16
2022-10-05T12:54:06.499Z,94833.34
2022-10-05T12:55:18.757Z,94817.03
2022-10-05T12:56:33.863Z,94817.16
2022-10-05T12:57:45.730Z,94819.50
2022-10-05T12:59:04.663Z,94825.94
2022-10-05T13:00:06.005Z,94825.50
2022-10-05T13:01:14.923Z,94823.06
2022-10-05T13:02:34.668Z,94828.38
2022-10-05T13:03:38.110Z,94830.50
2022-10-05T13:04:51.600Z,94822.84
2022-10-05T13:06:28.725Z,94822.44
2022-10-05T13:07:43.466Z,94829.81
2022-10-05T13:08:55.764Z,94814.31
2022-10-05T13:10:13.985Z,94821.81
2022-10-05T13:11:37.641Z,94815.63
2022-10-05T13:12:36.141Z,94814.13
2022-10-05T13:13:50.615Z,94815.06
2022-10-05T13:14:55.475Z,94809.81
2022-10-05T13:16:09.456Z,94811.75
2022-10-05T13:17:31.079Z,94809.75
2022-10-05T13:18:27.599Z,94812.72
2022-10-05T13:19:29.776Z,94812.44
2022-10-05T13:20:40.499Z,94812.78
2022-10-05T13:21:46.001Z,94806.78
2022-10-05T13:22:58.939Z,94809.09
2022-10-05T13:24:01.627Z,94805.09
2022-10-05T13:25:40.402Z,94802.59
2022-10-05T13:26:41.053Z,94805.34
2022-10-05T13:27:45.262Z,94804.22
2022-10-05T13:28:52.562Z,94802.38
2022-10-05T13:30:02.225Z,94807.78
2022-10-05T13:31:16.040Z,94797.72
2022-10-05T13:32:25.780Z,94791.53
2022-10-05T13:33:49.466Z,94790.69
2022-10-05T13:35:01.328Z,94791.19
2022-10-05T13:36:00.594Z,94786.94
2022-10-05T13:37:06.492Z,94782.44
2022-10-05T13:38:34.488Z,94785.72
2022-10-05T13:39:46.487Z,94781.03
2022-10-05T13:40:58.163Z,94779.13
2022-10-05T13:42:05.212Z,94780.28
2022-10-05T13:43:28.249Z,94780.56
2022-10-05T13:44:34.405Z,94792.03
2022-10-05T13:46:04.478Z,94789.81
2022-10-05T13:47:05.430Z,94784.47
2022-10-05T13:48:14.039Z,94782.75
2022-10-05T13:49:13.629Z,94751.56
2022-10-05T13:50:26.603Z,94781.22
2022-10-05T13:51:36.450Z,94786.44
2022-10-05T13:52:54.363Z,94784.69
2022-10-05T13:54:27.120Z,94783.75
2022-10-05T13:56:00.088Z,94781.34
2022-10-05T13:57:07.962Z,94779.47
2022-10-05T13:58:13.861Z,94787.66
2022-10-05T13:59:32.233Z,94783.88
2022-10-05T14:00:30.442Z,94775.66
2022-10-05T14:01:43.962Z,94780.47
2022-10-05T14:02:43.771Z,94777.53
2022-10-05T14:03:40.347Z,94776.81
2022-10-05T14:04:50.934Z,94775.63
2022-10-05T14:05:56.413Z,94769.78
2022-10-05T14:06:53.224Z,94778.34
2022-10-05T14:07:55.752Z,94786.69
2022-10-05T14:08:52.910Z,94776.09
2022-10-05T14:09:50.222Z,94785.13